createdAt,value
2022-12-12T08:08:51.351Z,2.81
2022-12-12T09:47:29.278Z,4.04
2022-12-12T09:51:00.027Z,3.51
2022-12-12T10:45:52.194Z,3.33
2022-12-12T10:47:56.877Z,3.86
2022-12-12T10:54:42.834Z,3.86
2022-12-12T10:57:04.923Z,3.69
2022-12-12T11:02:59.674Z,3.86
2022-12-12T11:03:32.026Z,4.04
2022-12-12T11:09:58.989Z,4.91
2022-12-12T11:12:53.890Z,4.39
2022-12-12T11:13:39.371Z,4.04
2022-12-12T11:14:24.138Z,4.21
2022-12-12T11:15:09.216Z,3.33
2022-12-12T11:15:10.495Z,4.56
2022-12-12T11:15:54.737Z,4.04
2022-12-12T11:16:39.535Z,4.04
2022-12-12T11:17:24.817Z,4.04
2022-12-12T11:18:09.599Z,4.04
2022-12-12T11:18:55.166Z,4.04
2022-12-12T11:19:39.477Z,4.21
2022-12-12T11:20:24.497Z,4.39
2022-12-12T11:21:10.139Z,3.97
2022-12-12T11:21:55.087Z,5.09
2022-12-12T11:22:39.735Z,4.39
2022-12-12T11:23:24.836Z,4.91
2022-12-12T11:24:10.251Z,4.91
2022-12-12T11:24:54.794Z,4.91
2022-12-12T11:25:40.069Z,5.44
2022-12-12T11:26:25.124Z,4.91
2022-12-12T11:27:10.595Z,5.09
2022-12-12T11:27:55.337Z,4.39
2022-12-12T11:28:40.992Z,4.56
2022-12-12T11:29:25.053Z,4.91
2022-12-12T11:30:10.728Z,4.56
2022-12-12T11:30:55.763Z,5.62
2022-12-12T11:31:40.947Z,4.56
2022-12-12T11:32:25.983Z,4.91
2022-12-12T11:33:10.315Z,5.09
2022-12-12T11:33:55.480Z,4.91
2022-12-12T11:34:41.457Z,4.39
2022-12-12T11:35:25.791Z,4.74
2022-12-12T11:36:10.648Z,5.09
2022-12-12T11:36:55.805Z,5.09
2022-12-12T11:37:41.380Z,4.74
2022-12-12T11:38:26.127Z,4.39
2022-12-12T11:39:11.076Z,5.44
2022-12-12T11:39:56.768Z,4.56
2022-12-12T11:40:41.498Z,4.21
2022-12-12T11:41:26.213Z,4.74
2022-12-12T11:42:11.651Z,4.21
2022-12-12T11:42:56.490Z,4.91
2022-12-12T11:43:41.637Z,4.91
2022-12-12T11:44:26.468Z,4.56
2022-12-12T11:45:12.613Z,4.74
2022-12-12T11:45:57.062Z,4.91
2022-12-12T11:46:41.809Z,4.39
2022-12-12T11:47:26.797Z,5.97
2022-12-12T11:48:12.277Z,4.74
2022-12-12T11:48:56.806Z,5.09
2022-12-12T11:49:42.066Z,4.91
2022-12-12T11:50:26.914Z,5.97
2022-12-12T11:51:12.713Z,4.39
2022-12-12T11:51:57.237Z,4.21
2022-12-12T11:52:42.397Z,4.39
2022-12-12T11:53:27.454Z,4.74
2022-12-12T11:54:12.848Z,4.56
2022-12-12T11:54:56.951Z,4.39
2022-12-12T11:55:42.524Z,4.74
2022-12-12T11:56:27.578Z,3.42
2022-12-12T11:57:12.236Z,4.39
2022-12-12T11:58:01.831Z,3.97
2022-12-12T11:58:42.336Z,5.09
2022-12-12T11:59:27.802Z,4.74
2022-12-12T12:00:12.246Z,5.09
2022-12-12T12:00:58.034Z,4.74
2022-12-12T12:01:42.663Z,4.74
2022-12-12T12:02:28.068Z,4.39
2022-12-12T12:03:13.553Z,4.91
2022-12-12T12:03:58.002Z,5.09
2022-12-12T12:04:44.899Z,5.44
2022-12-12T12:05:27.795Z,4.91
2022-12-12T12:06:13.007Z,4.91
2022-12-12T12:06:57.753Z,5.27
2022-12-12T12:07:43.227Z,4.10
2022-12-12T12:08:28.424Z,5.09
2022-12-12T12:09:13.459Z,6.32
2022-12-12T12:09:57.992Z,5.09
2022-12-12T12:10:43.266Z,5.09
2022-12-12T12:11:27.986Z,5.62
2022-12-12T12:12:13.567Z,3.69
2022-12-12T12:12:58.638Z,4.79
2022-12-12T12:13:43.363Z,5.27
2022-12-12T12:14:28.269Z,5.09
2022-12-12T12:15:15.794Z,5.27
2022-12-12T12:15:58.878Z,5.27
2022-12-12T12:16:43.953Z,4.91
2022-12-12T12:17:28.953Z,5.97
2022-12-12T12:18:14.119Z,4.74
2022-12-12T12:18:58.802Z,4.74
2022-12-12T12:19:46.780Z,5.27
2022-12-12T12:20:29.587Z,5.97
2022-12-12T12:21:14.162Z,4.91
2022-12-12T12:21:59.080Z,6.49
2022-12-12T13:08:11.822Z,5.27
2022-12-12T14:40:43.857Z,6.49
2022-12-12T14:41:30.859Z,6.49
2022-12-12T14:48:02.115Z,7.72
2022-12-12T16:51:09.109Z,17.90
2022-12-12T16:52:01.836Z,19.13
2022-12-12T16:52:36.417Z,19.13
2022-12-12T16:53:21.928Z,20.89
2022-12-12T16:54:07.618Z,18.78
2022-12-12T16:54:54.120Z,15.19
2022-12-12T16:55:41.802Z,22.29
2022-12-12T16:56:37.203Z,22.12
2022-12-12T21:05:28.885Z,22.47
2022-12-12T21:07:43.013Z,29.84
2022-12-12T21:07:43.113Z,25.63
2022-12-12T21:08:28.054Z,18.43
2022-12-12T21:09:16.259Z,25.63
2022-12-12T21:09:57.657Z,18.20
2022-12-12T21:10:44.239Z,21.34
2022-12-12T21:11:28.108Z,29.31
2022-12-12T21:12:13.165Z,25.27
2022-12-12T21:12:58.284Z,23.87
2022-12-12T21:13:46.723Z,24.92
2022-12-12T21:14:28.531Z,29.31
2022-12-12T21:15:13.567Z,24.05
2022-12-12T21:15:58.878Z,25.45
2022-12-12T21:16:43.414Z,28.43
2022-12-12T21:17:28.429Z,24.92
2022-12-12T21:18:14.148Z,22.12
2022-12-12T21:18:58.572Z,27.38
2022-12-12T21:19:43.918Z,24.40
2022-12-12T21:20:29.189Z,21.59
2022-12-12T21:21:13.805Z,24.05
2022-12-12T21:21:58.540Z,21.76
2022-12-12T21:22:44.398Z,31.94
2022-12-12T21:23:29.140Z,27.03
2022-12-12T21:24:14.823Z,27.03
2022-12-12T21:24:59.107Z,27.03
2022-12-12T21:25:48.919Z,17.65
2022-12-12T21:26:30.839Z,22.71
2022-12-12T21:27:14.902Z,25.98
2022-12-12T21:27:59.482Z,17.79
2022-12-12T21:28:58.537Z,24.05
2022-12-12T21:29:30.249Z,21.76
2022-12-12T21:30:14.394Z,29.49
2022-12-12T21:31:50.426Z,27.38
2022-12-12T21:33:18.392Z,21.34
2022-12-12T21:35:36.767Z,18.61
2022-12-12T21:36:17.416Z,33.17
2022-12-12T21:37:41.679Z,24.57
2022-12-12T21:49:59.263Z,23.52
2022-12-12T21:52:37.391Z,28.08
2022-12-12T21:55:02.248Z,24.75
2022-12-12T21:55:50.941Z,17.92
2022-12-12T21:56:36.890Z,22.12
2022-12-12T21:57:24.667Z,24.05
2022-12-12T21:58:24.810Z,25.63
2022-12-12T22:00:14.300Z,26.50
2022-12-12T22:01:02.437Z,24.92
2022-12-12T22:01:59.420Z,28.43
2022-12-12T22:11:40.010Z,24.22
2022-12-12T22:13:39.650Z,29.49
2022-12-12T22:18:19.187Z,31.24
